sensor_id;sensor_type;location;lat;lon;timestamp;temperature;humidity
43183;DHT22;28802;38.578;-0.066;2022-10-16T00:01:29;19.00;99.90
43183;DHT22;28802;38.578;-0.066;2022-10-16T00:03:57;19.00;99.90
43183;DHT22;28802;38.578;-0.066;2022-10-16T00:06:23;19.00;99.90
43183;DHT22;28802;38.578;-0.066;2022-10-16T00:08:50;18.90;99.90
43183;DHT22;28802;38.578;-0.066;2022-10-16T00:13:43;18.80;99.90
43183;DHT22;28802;38.578;-0.066;2022-10-16T00:16:11;18.80;99.90
43183;DHT22;28802;38.578;-0.066;2022-10-16T00:18:38;18.80;99.90
43183;DHT22;28802;38.578;-0.066;2022-10-16T00:21:08;18.70;99.90
43183;DHT22;28802;38.578;-0.066;2022-10-16T00:23:35;18.70;99.90
43183;DHT22;28802;38.578;-0.066;2022-10-16T00:26:05;18.70;99.90
43183;DHT22;28802;38.578;-0.066;2022-10-16T00:28:31;18.70;99.90
43183;DHT22;28802;38.578;-0.066;2022-10-16T00:30:58;18.80;99.90
43183;DHT22;28802;38.578;-0.066;2022-10-16T00:33:24;18.80;99.90
43183;DHT22;28802;38.578;-0.066;2022-10-16T00:35:50;18.70;99.90
43183;DHT22;28802;38.578;-0.066;2022-10-16T00:38:16;18.70;99.90
43183;DHT22;28802;38.578;-0.066;2022-10-16T00:40:42;18.70;99.90
43183;DHT22;28802;38.578;-0.066;2022-10-16T00:43:36;18.70;99.90
43183;DHT22;28802;38.578;-0.066;2022-10-16T00:46:10;18.70;99.90
43183;DHT22;28802;38.578;-0.066;2022-10-16T00:48:36;18.70;99.90
43183;DHT22;28802;38.578;-0.066;2022-10-16T00:51:02;18.60;99.90
43183;DHT22;28802;38.578;-0.066;2022-10-16T00:53:29;18.60;99.90
43183;DHT22;28802;38.578;-0.066;2022-10-16T00:55:55;18.60;99.90
43183;DHT22;28802;38.578;-0.066;2022-10-16T00:58:22;18.60;99.90
43183;DHT22;28802;38.578;-0.066;2022-10-16T01:00:48;18.60;99.90
43183;DHT22;28802;38.578;-0.066;2022-10-16T01:03:33;18.60;99.90
43183;DHT22;28802;38.578;-0.066;2022-10-16T01:11:45;18.50;99.90
43183;DHT22;28802;38.578;-0.066;2022-10-16T01:14:26;18.50;99.90
43183;DHT22;28802;38.578;-0.066;2022-10-16T01:17:00;18.50;99.90
43183;DHT22;28802;38.578;-0.066;2022-10-16T01:19:58;18.50;99.90
43183;DHT22;28802;38.578;-0.066;2022-10-16T01:28:58;18.60;99.90
43183;DHT22;28802;38.578;-0.066;2022-10-16T01:31:31;18.70;99.90
43183;DHT22;28802;38.578;-0.066;2022-10-16T01:34:19;18.60;99.90
43183;DHT22;28802;38.578;-0.066;2022-10-16T01:37:00;18.50;99.90
43183;DHT22;28802;38.578;-0.066;2022-10-16T01:39:30;18.50;99.90
43183;DHT22;28802;38.578;-0.066;2022-10-16T01:42:03;18.50;99.90
43183;DHT22;28802;38.578;-0.066;2022-10-16T01:44:32;18.50;99.90
43183;DHT22;28802;38.578;-0.066;2022-10-16T01:47:00;18.50;99.90
43183;DHT22;28802;38.578;-0.066;2022-10-16T01:49:29;18.60;99.90
43183;DHT22;28802;38.578;-0.066;2022-10-16T01:51:59;18.60;99.90
43183;DHT22;28802;38.578;-0.066;2022-10-16T01:54:29;18.60;99.90
43183;DHT22;28802;38.578;-0.066;2022-10-16T01:56:56;18.60;99.90
43183;DHT22;28802;38.578;-0.066;2022-10-16T01:59:26;18.60;99.90
43183;DHT22;28802;38.578;-0.066;2022-10-16T02:01:58;18.60;99.90
43183;DHT22;28802;38.578;-0.066;2022-10-16T02:04:34;18.60;99.90
43183;DHT22;28802;38.578;-0.066;2022-10-16T02:07:02;18.60;99.90
43183;DHT22;28802;38.578;-0.066;2022-10-16T02:09:30;18.60;99.90
43183;DHT22;28802;38.578;-0.066;2022-10-16T02:11:57;18.60;99.90
43183;DHT22;28802;38.578;-0.066;2022-10-16T02:14:25;18.60;99.90
43183;DHT22;28802;38.578;-0.066;2022-10-16T02:16:51;18.70;99.90
43183;DHT22;28802;38.578;-0.066;2022-10-16T02:19:21;18.60;99.90
43183;DHT22;28802;38.578;-0.066;2022-10-16T02:21:56;18.60;99.90
43183;DHT22;28802;38.578;-0.066;2022-10-16T02:24:50;18.60;99.90
43183;DHT22;28802;38.578;-0.066;2022-10-16T02:27:27;18.80;99.90
43183;DHT22;28802;38.578;-0.066;2022-10-16T02:32:35;18.70;99.90
43183;DHT22;28802;38.578;-0.066;2022-10-16T02:35:02;18.70;99.90
43183;DHT22;28802;38.578;-0.066;2022-10-16T02:37:28;18.70;99.90
43183;DHT22;28802;38.578;-0.066;2022-10-16T02:39:57;18.60;99.90
43183;DHT22;28802;38.578;-0.066;2022-10-16T02:42:39;18.50;99.90
43183;DHT22;28802;38.578;-0.066;2022-10-16T02:45:07;18.50;99.90
43183;DHT22;28802;38.578;-0.066;2022-10-16T02:47:33;18.50;99.90
43183;DHT22;28802;38.578;-0.066;2022-10-16T02:49:59;18.40;99.90
43183;DHT22;28802;38.578;-0.066;2022-10-16T02:52:25;18.40;99.90
43183;DHT22;28802;38.578;-0.066;2022-10-16T02:54:51;18.30;99.90
43183;DHT22;28802;38.578;-0.066;2022-10-16T02:57:18;18.20;99.90
43183;DHT22;28802;38.578;-0.066;2022-10-16T02:59:44;18.20;99.90
43183;DHT22;28802;38.578;-0.066;2022-10-16T03:02:10;18.10;99.90
43183;DHT22;28802;38.578;-0.066;2022-10-16T03:04:36;18.10;99.90
43183;DHT22;28802;38.578;-0.066;2022-10-16T03:07:03;18.00;99.90
43183;DHT22;28802;38.578;-0.066;2022-10-16T03:09:29;18.00;99.90
43183;DHT22;28802;38.578;-0.066;2022-10-16T03:11:54;17.90;99.90
43183;DHT22;28802;38.578;-0.066;2022-10-16T03:14:20;17.90;99.90
43183;DHT22;28802;38.578;-0.066;2022-10-16T03:16:46;17.80;99.90
43183;DHT22;28802;38.578;-0.066;2022-10-16T03:19:12;17.80;99.90
43183;DHT22;28802;38.578;-0.066;2022-10-16T03:21:38;17.70;99.90
43183;DHT22;28802;38.578;-0.066;2022-10-16T03:24:04;17.70;99.90
43183;DHT22;28802;38.578;-0.066;2022-10-16T03:26:30;17.70;99.90
43183;DHT22;28802;38.578;-0.066;2022-10-16T03:28:56;17.70;99.90
43183;DHT22;28802;38.578;-0.066;2022-10-16T03:31:21;17.70;99.90
43183;DHT22;28802;38.578;-0.066;2022-10-16T03:33:47;17.60;99.90
43183;DHT22;28802;38.578;-0.066;2022-10-16T03:36:13;17.60;99.90
43183;DHT22;28802;38.578;-0.066;2022-10-16T03:38:39;17.60;99.90
43183;DHT22;28802;38.578;-0.066;2022-10-16T03:41:05;17.60;99.90
43183;DHT22;28802;38.578;-0.066;2022-10-16T03:43:33;17.60;99.90
43183;DHT22;28802;38.578;-0.066;2022-10-16T03:45:59;17.50;99.90
43183;DHT22;28802;38.578;-0.066;2022-10-16T03:48:25;17.60;99.90
43183;DHT22;28802;38.578;-0.066;2022-10-16T03:50:51;17.60;99.90
43183;DHT22;28802;38.578;-0.066;2022-10-16T03:53:17;17.50;99.90
43183;DHT22;28802;38.578;-0.066;2022-10-16T03:55:43;17.50;99.90
43183;DHT22;28802;38.578;-0.066;2022-10-16T03:58:10;17.50;99.90
43183;DHT22;28802;38.578;-0.066;2022-10-16T04:00:39;17.60;99.90
43183;DHT22;28802;38.578;-0.066;2022-10-16T04:03:05;17.70;99.90
43183;DHT22;28802;38.578;-0.066;2022-10-16T04:05:31;17.70;99.90
43183;DHT22;28802;38.578;-0.066;2022-10-16T04:07:57;17.70;99.90
43183;DHT22;28802;38.578;-0.066;2022-10-16T04:10:23;17.70;99.90
43183;DHT22;28802;38.578;-0.066;2022-10-16T04:12:48;17.80;99.90
43183;DHT22;28802;38.578;-0.066;2022-10-16T04:15:14;17.80;99.90
43183;DHT22;28802;38.578;-0.066;2022-10-16T04:17:40;17.90;99.90
43183;DHT22;28802;38.578;-0.066;2022-10-16T04:20:06;17.80;99.90
43183;DHT22;28802;38.578;-0.066;2022-10-16T04:22:32;17.80;99.90
43183;DHT22;28802;38.578;-0.066;2022-10-16T04:24:58;17.70;99.90
43183;DHT22;28802;38.578;-0.066;2022-10-16T04:27:24;17.70;99.90
43183;DHT22;28802;38.578;-0.066;2022-10-16T04:29:50;17.80;99.90
43183;DHT22;28802;38.578;-0.066;2022-10-16T04:32:16;17.80;99.90
43183;DHT22;28802;38.578;-0.066;2022-10-16T04:34:42;17.80;99.90
43183;DHT22;28802;38.578;-0.066;2022-10-16T04:37:08;17.70;99.90
43183;DHT22;28802;38.578;-0.066;2022-10-16T04:39:34;17.70;99.90
43183;DHT22;28802;38.578;-0.066;2022-10-16T04:42:00;17.70;99.90
43183;DHT22;28802;38.578;-0.066;2022-10-16T04:44:26;17.60;99.90
43183;DHT22;28802;38.578;-0.066;2022-10-16T04:46:52;17.60;99.90
43183;DHT22;28802;38.578;-0.066;2022-10-16T04:49:17;17.70;99.90
43183;DHT22;28802;38.578;-0.066;2022-10-16T04:51:43;17.70;99.90
43183;DHT22;28802;38.578;-0.066;2022-10-16T04:54:10;17.80;99.90
43183;DHT22;28802;38.578;-0.066;2022-10-16T04:56:36;17.70;99.90
43183;DHT22;28802;38.578;-0.066;2022-10-16T04:59:09;17.70;99.90
43183;DHT22;28802;38.578;-0.066;2022-10-16T05:01:35;17.60;99.90
43183;DHT22;28802;38.578;-0.066;2022-10-16T05:04:01;17.60;99.90
43183;DHT22;28802;38.578;-0.066;2022-10-16T05:06:27;17.70;99.90
43183;DHT22;28802;38.578;-0.066;2022-10-16T05:08:53;17.80;99.90
43183;DHT22;28802;38.578;-0.066;2022-10-16T05:11:18;17.70;99.90
43183;DHT22;28802;38.578;-0.066;2022-10-16T05:13:44;17.60;99.90
43183;DHT22;28802;38.578;-0.066;2022-10-16T05:16:10;17.50;99.90
43183;DHT22;28802;38.578;-0.066;2022-10-16T05:18:36;17.50;99.90
43183;DHT22;28802;38.578;-0.066;2022-10-16T05:21:02;17.50;99.90
43183;DHT22;28802;38.578;-0.066;2022-10-16T05:23:28;17.40;99.90
43183;DHT22;28802;38.578;-0.066;2022-10-16T05:25:55;17.50;99.90
43183;DHT22;28802;38.578;-0.066;2022-10-16T05:28:24;17.50;99.90
43183;DHT22;28802;38.578;-0.066;2022-10-16T05:30:50;17.40;99.90
43183;DHT22;28802;38.578;-0.066;2022-10-16T05:33:16;17.30;99.90
43183;DHT22;28802;38.578;-0.066;2022-10-16T05:35:42;17.30;99.90
43183;DHT22;28802;38.578;-0.066;2022-10-16T05:38:09;17.30;99.90
43183;DHT22;28802;38.578;-0.066;2022-10-16T05:40:35;17.40;99.90
43183;DHT22;28802;38.578;-0.066;2022-10-16T05:43:01;17.50;99.90
43183;DHT22;28802;38.578;-0.066;2022-10-16T05:45:27;17.50;99.90
43183;DHT22;28802;38.578;-0.066;2022-10-16T05:47:53;17.50;99.90
43183;DHT22;28802;38.578;-0.066;2022-10-16T05:50:18;17.40;99.90
43183;DHT22;28802;38.578;-0.066;2022-10-16T05:52:44;17.40;99.90
43183;DHT22;28802;38.578;-0.066;2022-10-16T05:55:10;17.40;99.90
43183;DHT22;28802;38.578;-0.066;2022-10-16T05:57:36;17.30;99.90
43183;DHT22;28802;38.578;-0.066;2022-10-16T06:00:03;17.20;99.90
43183;DHT22;28802;38.578;-0.066;2022-10-16T06:02:38;17.20;99.90
43183;DHT22;28802;38.578;-0.066;2022-10-16T06:05:04;17.40;99.90
43183;DHT22;28802;38.578;-0.066;2022-10-16T06:07:34;17.40;99.90
43183;DHT22;28802;38.578;-0.066;2022-10-16T06:10:01;17.30;99.90
43183;DHT22;28802;38.578;-0.066;2022-10-16T06:12:27;17.30;99.90
43183;DHT22;28802;38.578;-0.066;2022-10-16T06:14:53;17.20;99.90
43183;DHT22;28802;38.578;-0.066;2022-10-16T06:17:18;17.10;99.90
43183;DHT22;28802;38.578;-0.066;2022-10-16T06:19:44;17.20;99.90
43183;DHT22;28802;38.578;-0.066;2022-10-16T06:22:10;17.40;99.90
43183;DHT22;28802;38.578;-0.066;2022-10-16T06:24:36;17.30;99.90
43183;DHT22;28802;38.578;-0.066;2022-10-16T06:27:03;17.30;99.90
43183;DHT22;28802;38.578;-0.066;2022-10-16T06:29:29;17.40;99.90
43183;DHT22;28802;38.578;-0.066;2022-10-16T06:31:55;17.50;99.90
43183;DHT22;28802;38.578;-0.066;2022-10-16T06:34:21;17.50;99.90
43183;DHT22;28802;38.578;-0.066;2022-10-16T06:36:47;17.70;99.90
43183;DHT22;28802;38.578;-0.066;2022-10-16T06:39:13;17.70;99.90
43183;DHT22;28802;38.578;-0.066;2022-10-16T06:41:38;17.70;99.90
43183;DHT22;28802;38.578;-0.066;2022-10-16T06:44:14;17.80;99.90
43183;DHT22;28802;38.578;-0.066;2022-10-16T06:46:40;17.90;99.90
43183;DHT22;28802;38.578;-0.066;2022-10-16T06:49:06;18.20;99.90
43183;DHT22;28802;38.578;-0.066;2022-10-16T06:51:32;18.40;99.90
43183;DHT22;28802;38.578;-0.066;2022-10-16T06:54:00;18.50;99.90
43183;DHT22;28802;38.578;-0.066;2022-10-16T06:56:27;18.80;99.90
43183;DHT22;28802;38.578;-0.066;2022-10-16T06:58:54;19.30;99.90
43183;DHT22;28802;38.578;-0.066;2022-10-16T07:01:22;19.70;99.90
43183;DHT22;28802;38.578;-0.066;2022-10-16T07:03:49;20.00;99.90
43183;DHT22;28802;38.578;-0.066;2022-10-16T07:06:17;20.50;99.90
43183;DHT22;28802;38.578;-0.066;2022-10-16T07:08:45;20.90;99.90
43183;DHT22;28802;38.578;-0.066;2022-10-16T07:11:14;21.30;99.90
43183;DHT22;28802;38.578;-0.066;2022-10-16T07:13:42;22.00;99.90
43183;DHT22;28802;38.578;-0.066;2022-10-16T07:16:17;21.80;99.90
43183;DHT22;28802;38.578;-0.066;2022-10-16T07:18:44;22.30;99.90
43183;DHT22;28802;38.578;-0.066;2022-10-16T07:21:31;22.80;99.90
43183;DHT22;28802;38.578;-0.066;2022-10-16T07:25:07;22.70;99.90
43183;DHT22;28802;38.578;-0.066;2022-10-16T07:27:33;23.10;99.90
43183;DHT22;28802;38.578;-0.066;2022-10-16T07:30:00;24.00;99.90
43183;DHT22;28802;38.578;-0.066;2022-10-16T07:32:26;24.50;99.90
43183;DHT22;28802;38.578;-0.066;2022-10-16T07:34:53;24.60;99.90
43183;DHT22;28802;38.578;-0.066;2022-10-16T07:37:19;25.10;99.90
43183;DHT22;28802;38.578;-0.066;2022-10-16T07:39:45;24.70;99.90
43183;DHT22;28802;38.578;-0.066;2022-10-16T07:42:11;24.90;99.90
43183;DHT22;28802;38.578;-0.066;2022-10-16T07:44:37;25.70;99.90
43183;DHT22;28802;38.578;-0.066;2022-10-16T07:47:03;26.50;99.90
43183;DHT22;28802;38.578;-0.066;2022-10-16T07:49:29;27.30;99.90
43183;DHT22;28802;38.578;-0.066;2022-10-16T07:51:55;27.90;99.90
43183;DHT22;28802;38.578;-0.066;2022-10-16T07:54:20;28.20;99.90
43183;DHT22;28802;38.578;-0.066;2022-10-16T07:56:46;27.80;99.90
43183;DHT22;28802;38.578;-0.066;2022-10-16T07:59:12;27.20;99.90
43183;DHT22;28802;38.578;-0.066;2022-10-16T08:01:38;27.40;99.90
43183;DHT22;28802;38.578;-0.066;2022-10-16T08:04:05;27.70;99.90
43183;DHT22;28802;38.578;-0.066;2022-10-16T08:06:36;27.30;99.90
43183;DHT22;28802;38.578;-0.066;2022-10-16T08:09:02;27.30;99.90
43183;DHT22;28802;38.578;-0.066;2022-10-16T08:11:37;27.20;99.90
43183;DHT22;28802;38.578;-0.066;2022-10-16T08:14:03;26.50;99.90
43183;DHT22;28802;38.578;-0.066;2022-10-16T08:16:28;25.90;99.90
43183;DHT22;28802;38.578;-0.066;2022-10-16T08:18:54;25.80;99.90
43183;DHT22;28802;38.578;-0.066;2022-10-16T08:21:23;25.90;99.90
43183;DHT22;28802;38.578;-0.066;2022-10-16T08:23:50;26.70;99.90
43183;DHT22;28802;38.578;-0.066;2022-10-16T08:26:22;26.20;99.90
43183;DHT22;28802;38.578;-0.066;2022-10-16T08:28:51;25.50;99.90
43183;DHT22;28802;38.578;-0.066;2022-10-16T08:31:17;25.20;99.90
43183;DHT22;28802;38.578;-0.066;2022-10-16T08:33:44;26.40;99.90
43183;DHT22;28802;38.578;-0.066;2022-10-16T08:36:12;27.90;99.90
43183;DHT22;28802;38.578;-0.066;2022-10-16T08:38:39;27.10;99.90
43183;DHT22;28802;38.578;-0.066;2022-10-16T08:41:13;26.40;99.90
43183;DHT22;28802;38.578;-0.066;2022-10-16T08:47:16;25.20;99.90
43183;DHT22;28802;38.578;-0.066;2022-10-16T08:49:20;25.30;99.90
43183;DHT22;28802;38.578;-0.066;2022-10-16T08:51:45;25.40;99.90
43183;DHT22;28802;38.578;-0.066;2022-10-16T08:54:27;25.50;99.90
43183;DHT22;28802;38.578;-0.066;2022-10-16T08:57:24;25.30;99.90
43183;DHT22;28802;38.578;-0.066;2022-10-16T08:59:52;25.20;99.90
43183;DHT22;28802;38.578;-0.066;2022-10-16T09:05:20;25.00;99.90
43183;DHT22;28802;38.578;-0.066;2022-10-16T09:10:37;25.70;99.90
43183;DHT22;28802;38.578;-0.066;2022-10-16T09:13:27;26.20;99.90
43183;DHT22;28802;38.578;-0.066;2022-10-16T09:19:49;26.20;99.90
43183;DHT22;28802;38.578;-0.066;2022-10-16T09:22:18;26.90;99.90
43183;DHT22;28802;38.578;-0.066;2022-10-16T09:24:47;27.70;99.90
43183;DHT22;28802;38.578;-0.066;2022-10-16T09:27:14;27.80;99.90
43183;DHT22;28802;38.578;-0.066;2022-10-16T09:29:40;27.20;99.90
43183;DHT22;28802;38.578;-0.066;2022-10-16T09:32:12;27.70;99.90
43183;DHT22;28802;38.578;-0.066;2022-10-16T09:34:43;28.30;99.90
43183;DHT22;28802;38.578;-0.066;2022-10-16T09:37:14;28.30;99.90
43183;DHT22;28802;38.578;-0.066;2022-10-16T09:39:48;27.30;99.90
43183;DHT22;28802;38.578;-0.066;2022-10-16T09:42:20;27.40;99.90
43183;DHT22;28802;38.578;-0.066;2022-10-16T09:44:53;27.00;99.90
43183;DHT22;28802;38.578;-0.066;2022-10-16T09:47:28;26.60;99.90
43183;DHT22;28802;38.578;-0.066;2022-10-16T09:49:56;26.80;99.90
43183;DHT22;28802;38.578;-0.066;2022-10-16T09:52:24;27.40;99.90
43183;DHT22;28802;38.578;-0.066;2022-10-16T09:54:56;26.50;99.90
43183;DHT22;28802;38.578;-0.066;2022-10-16T09:57:23;25.30;99.90
43183;DHT22;28802;38.578;-0.066;2022-10-16T09:59:54;25.40;99.90
43183;DHT22;28802;38.578;-0.066;2022-10-16T10:02:35;25.50;99.90
43183;DHT22;28802;38.578;-0.066;2022-10-16T10:05:04;25.00;99.90
43183;DHT22;28802;38.578;-0.066;2022-10-16T10:07:33;25.20;99.90
43183;DHT22;28802;38.578;-0.066;2022-10-16T10:10:04;25.00;99.90
43183;DHT22;28802;38.578;-0.066;2022-10-16T10:12:32;24.90;99.90
43183;DHT22;28802;38.578;-0.066;2022-10-16T10:15:20;25.20;99.90
43183;DHT22;28802;38.578;-0.066;2022-10-16T10:17:53;25.40;99.90
43183;DHT22;28802;38.578;-0.066;2022-10-16T10:20:31;25.20;99.90
43183;DHT22;28802;38.578;-0.066;2022-10-16T10:23:13;26.20;99.90
43183;DHT22;28802;38.578;-0.066;2022-10-16T10:25:49;26.40;99.90
43183;DHT22;28802;38.578;-0.066;2022-10-16T10:36:34;25.70;99.90
43183;DHT22;28802;38.578;-0.066;2022-10-16T10:53:00;27.80;99.90
43183;DHT22;28802;38.578;-0.066;2022-10-16T10:55:48;28.00;99.90
43183;DHT22;28802;38.578;-0.066;2022-10-16T10:58:24;27.30;99.90
43183;DHT22;28802;38.578;-0.066;2022-10-16T11:01:13;27.30;99.90
43183;DHT22;28802;38.578;-0.066;2022-10-16T11:04:05;28.10;99.90
43183;DHT22;28802;38.578;-0.066;2022-10-16T11:06:55;28.80;99.90
43183;DHT22;28802;38.578;-0.066;2022-10-16T11:09:27;27.60;99.90
43183;DHT22;28802;38.578;-0.066;2022-10-16T11:12:02;27.00;99.90
43183;DHT22;28802;38.578;-0.066;2022-10-16T11:14:46;27.10;99.90
43183;DHT22;28802;38.578;-0.066;2022-10-16T11:17:39;26.60;99.90
43183;DHT22;28802;38.578;-0.066;2022-10-16T11:20:20;26.70;99.90
43183;DHT22;28802;38.578;-0.066;2022-10-16T11:22:55;26.90;99.90
43183;DHT22;28802;38.578;-0.066;2022-10-16T11:25:31;27.60;99.90
43183;DHT22;28802;38.578;-0.066;2022-10-16T11:33:41;27.40;99.90
43183;DHT22;28802;38.578;-0.066;2022-10-16T11:36:36;27.40;99.90
43183;DHT22;28802;38.578;-0.066;2022-10-16T11:39:24;27.60;99.90
43183;DHT22;28802;38.578;-0.066;2022-10-16T11:41:52;28.20;99.90
43183;DHT22;28802;38.578;-0.066;2022-10-16T11:47:26;27.70;99.90
43183;DHT22;28802;38.578;-0.066;2022-10-16T11:49:58;26.60;99.90
43183;DHT22;28802;38.578;-0.066;2022-10-16T11:55:32;26.20;99.90
43183;DHT22;28802;38.578;-0.066;2022-10-16T11:58:07;26.30;99.90
43183;DHT22;28802;38.578;-0.066;2022-10-16T12:00:45;27.30;99.90
43183;DHT22;28802;38.578;-0.066;2022-10-16T12:03:56;26.80;99.90
43183;DHT22;28802;38.578;-0.066;2022-10-16T12:09:02;26.40;99.90
43183;DHT22;28802;38.578;-0.066;2022-10-16T12:16:50;27.20;99.90
43183;DHT22;28802;38.578;-0.066;2022-10-16T12:19:17;26.40;99.90
43183;DHT22;28802;38.578;-0.066;2022-10-16T12:21:44;26.10;99.90
43183;DHT22;28802;38.578;-0.066;2022-10-16T12:27:39;26.60;99.90
43183;DHT22;28802;38.578;-0.066;2022-10-16T12:30:06;26.80;99.90
43183;DHT22;28802;38.578;-0.066;2022-10-16T12:32:37;26.10;99.90
43183;DHT22;28802;38.578;-0.066;2022-10-16T12:35:06;26.10;99.90
43183;DHT22;28802;38.578;-0.066;2022-10-16T12:37:42;26.40;99.90
43183;DHT22;28802;38.578;-0.066;2022-10-16T12:40:26;27.10;99.90
43183;DHT22;28802;38.578;-0.066;2022-10-16T12:42:52;27.10;99.90
43183;DHT22;28802;38.578;-0.066;2022-10-16T12:45:31;26.00;99.90
43183;DHT22;28802;38.578;-0.066;2022-10-16T12:47:59;25.50;99.90
43183;DHT22;28802;38.578;-0.066;2022-10-16T12:50:31;25.50;99.90
43183;DHT22;28802;38.578;-0.066;2022-10-16T12:52:58;25.90;99.90
43183;DHT22;28802;38.578;-0.066;2022-10-16T12:55:25;26.30;99.90
43183;DHT22;28802;38.578;-0.066;2022-10-16T13:00:44;26.30;99.90
43183;DHT22;28802;38.578;-0.066;2022-10-16T13:03:48;26.30;99.90
43183;DHT22;28802;38.578;-0.066;2022-10-16T13:09:13;26.30;99.90
43183;DHT22;28802;38.578;-0.066;2022-10-16T13:11:58;26.00;99.90
43183;DHT22;28802;38.578;-0.066;2022-10-16T13:17:16;25.30;99.90
43183;DHT22;28802;38.578;-0.066;2022-10-16T13:22:23;25.40;99.90
43183;DHT22;28802;38.578;-0.066;2022-10-16T13:28:00;25.30;99.90
43183;DHT22;28802;38.578;-0.066;2022-10-16T13:30:29;25.30;99.90
43183;DHT22;28802;38.578;-0.066;2022-10-16T13:33:14;25.30;99.90
43183;DHT22;28802;38.578;-0.066;2022-10-16T13:35:52;25.10;99.90
43183;DHT22;28802;38.578;-0.066;2022-10-16T13:38:20;25.00;99.90
43183;DHT22;28802;38.578;-0.066;2022-10-16T13:41:01;25.00;99.90
43183;DHT22;28802;38.578;-0.066;2022-10-16T13:43:39;24.80;99.90
43183;DHT22;28802;38.578;-0.066;2022-10-16T13:46:12;24.70;99.90
43183;DHT22;28802;38.578;-0.066;2022-10-16T13:48:38;24.80;99.90
43183;DHT22;28802;38.578;-0.066;2022-10-16T13:53:34;24.80;99.90
43183;DHT22;28802;38.578;-0.066;2022-10-16T13:56:06;24.80;99.90
43183;DHT22;28802;38.578;-0.066;2022-10-16T13:58:33;24.80;99.90
43183;DHT22;28802;38.578;-0.066;2022-10-16T14:01:03;25.10;99.90
43183;DHT22;28802;38.578;-0.066;2022-10-16T14:03:32;25.40;99.90
43183;DHT22;28802;38.578;-0.066;2022-10-16T14:06:01;25.70;99.90
43183;DHT22;28802;38.578;-0.066;2022-10-16T14:08:29;25.70;99.90
43183;DHT22;28802;38.578;-0.066;2022-10-16T14:11:01;25.60;99.90
43183;DHT22;28802;38.578;-0.066;2022-10-16T14:13:37;25.50;99.90
43183;DHT22;28802;38.578;-0.066;2022-10-16T14:16:09;25.50;99.90
43183;DHT22;28802;38.578;-0.066;2022-10-16T14:18:37;25.50;99.90
43183;DHT22;28802;38.578;-0.066;2022-10-16T14:21:06;25.70;99.90
43183;DHT22;28802;38.578;-0.066;2022-10-16T14:23:39;25.60;99.90
43183;DHT22;28802;38.578;-0.066;2022-10-16T14:28:35;25.70;99.90
43183;DHT22;28802;38.578;-0.066;2022-10-16T14:31:16;25.80;99.90
43183;DHT22;28802;38.578;-0.066;2022-10-16T14:33:48;25.70;99.90
43183;DHT22;28802;38.578;-0.066;2022-10-16T14:36:15;25.70;99.90
43183;DHT22;28802;38.578;-0.066;2022-10-16T14:38:49;25.80;99.90
43183;DHT22;28802;38.578;-0.066;2022-10-16T14:41:23;25.80;99.90
43183;DHT22;28802;38.578;-0.066;2022-10-16T14:43:55;26.00;99.90
43183;DHT22;28802;38.578;-0.066;2022-10-16T14:46:33;26.00;99.90
43183;DHT22;28802;38.578;-0.066;2022-10-16T14:49:03;25.70;99.90
43183;DHT22;28802;38.578;-0.066;2022-10-16T14:51:30;25.70;99.90
43183;DHT22;28802;38.578;-0.066;2022-10-16T14:53:56;25.50;99.90
43183;DHT22;28802;38.578;-0.066;2022-10-16T14:56:31;25.50;99.90
43183;DHT22;28802;38.578;-0.066;2022-10-16T14:59:00;25.50;99.90
43183;DHT22;28802;38.578;-0.066;2022-10-16T15:01:29;25.60;99.90
43183;DHT22;28802;38.578;-0.066;2022-10-16T15:03:55;25.70;99.90
43183;DHT22;28802;38.578;-0.066;2022-10-16T15:06:21;25.60;99.90
43183;DHT22;28802;38.578;-0.066;2022-10-16T15:08:47;25.60;99.90
43183;DHT22;28802;38.578;-0.066;2022-10-16T15:11:16;25.50;99.90
43183;DHT22;28802;38.578;-0.066;2022-10-16T15:13:42;25.50;99.90
43183;DHT22;28802;38.578;-0.066;2022-10-16T15:16:36;25.50;99.90
43183;DHT22;28802;38.578;-0.066;2022-10-16T15:19:02;25.40;99.90
43183;DHT22;28802;38.578;-0.066;2022-10-16T15:21:31;25.50;99.90
43183;DHT22;28802;38.578;-0.066;2022-10-16T15:23:59;25.60;99.90
43183;DHT22;28802;38.578;-0.066;2022-10-16T15:26:28;25.70;99.90
43183;DHT22;28802;38.578;-0.066;2022-10-16T15:28:54;25.90;99.90
43183;DHT22;28802;38.578;-0.066;2022-10-16T15:31:21;26.30;99.90
43183;DHT22;28802;38.578;-0.066;2022-10-16T15:33:52;26.20;99.90
43183;DHT22;28802;38.578;-0.066;2022-10-16T15:36:34;26.00;99.90
43183;DHT22;28802;38.578;-0.066;2022-10-16T15:39:03;25.30;99.90
43183;DHT22;28802;38.578;-0.066;2022-10-16T15:41:29;24.70;99.90
43183;DHT22;28802;38.578;-0.066;2022-10-16T15:43:58;24.60;99.90
43183;DHT22;28802;38.578;-0.066;2022-10-16T15:46:24;24.50;99.90
43183;DHT22;28802;38.578;-0.066;2022-10-16T15:48:51;24.60;99.90
43183;DHT22;28802;38.578;-0.066;2022-10-16T15:51:24;24.80;99.90
43183;DHT22;28802;38.578;-0.066;2022-10-16T15:53:53;25.00;99.90
43183;DHT22;28802;38.578;-0.066;2022-10-16T15:56:19;24.50;99.90
43183;DHT22;28802;38.578;-0.066;2022-10-16T15:58:45;24.40;99.90
43183;DHT22;28802;38.578;-0.066;2022-10-16T16:01:14;24.30;99.90
43183;DHT22;28802;38.578;-0.066;2022-10-16T16:03:40;24.30;99.90
43183;DHT22;28802;38.578;-0.066;2022-10-16T16:06:10;24.20;99.90
43183;DHT22;28802;38.578;-0.066;2022-10-16T16:08:36;24.20;99.90
43183;DHT22;28802;38.578;-0.066;2022-10-16T16:11:06;24.20;99.90
43183;DHT22;28802;38.578;-0.066;2022-10-16T16:13:33;24.20;99.90
43183;DHT22;28802;38.578;-0.066;2022-10-16T16:15:59;24.00;99.90
43183;DHT22;28802;38.578;-0.066;2022-10-16T16:18:26;23.80;99.90
43183;DHT22;28802;38.578;-0.066;2022-10-16T16:20:52;23.80;99.90
43183;DHT22;28802;38.578;-0.066;2022-10-16T16:23:18;23.70;99.90
43183;DHT22;28802;38.578;-0.066;2022-10-16T16:26:13;23.60;99.90
43183;DHT22;28802;38.578;-0.066;2022-10-16T16:29:28;23.60;99.90
43183;DHT22;28802;38.578;-0.066;2022-10-16T16:31:54;23.50;99.90
43183;DHT22;28802;38.578;-0.066;2022-10-16T16:34:27;23.40;99.90
43183;DHT22;28802;38.578;-0.066;2022-10-16T16:36:56;23.50;99.90
43183;DHT22;28802;38.578;-0.066;2022-10-16T16:39:23;23.50;99.90
43183;DHT22;28802;38.578;-0.066;2022-10-16T16:41:54;23.40;99.90
43183;DHT22;28802;38.578;-0.066;2022-10-16T16:44:20;23.40;99.90
43183;DHT22;28802;38.578;-0.066;2022-10-16T16:46:46;23.30;99.90
43183;DHT22;28802;38.578;-0.066;2022-10-16T16:49:14;23.30;99.90
43183;DHT22;28802;38.578;-0.066;2022-10-16T16:51:43;23.30;99.90
43183;DHT22;28802;38.578;-0.066;2022-10-16T16:54:10;23.30;99.90
43183;DHT22;28802;38.578;-0.066;2022-10-16T16:56:38;23.20;99.90
43183;DHT22;28802;38.578;-0.066;2022-10-16T16:59:05;23.20;99.90
43183;DHT22;28802;38.578;-0.066;2022-10-16T17:01:31;23.20;99.90
43183;DHT22;28802;38.578;-0.066;2022-10-16T17:03:58;23.20;99.90
43183;DHT22;28802;38.578;-0.066;2022-10-16T17:06:28;23.20;99.90
43183;DHT22;28802;38.578;-0.066;2022-10-16T17:08:58;23.20;99.90